Time;durP1;ratioP1;P1;durP2;ratioP2;P2;SDS_P1;SDS_P2;PMS_P1;PMS_P2;Temp;Humidity;BMP_temperature;BMP_pressure;BME280_temperature;BME280_humidity;BME280_pressure;Samples;Min_cycle;Max_cycle;Signal;HPM_P1;HPM_P2
2023/09/21 00:01:10;;;;;;;1.08;0.60;;;;;;;21.71;51.56;99707.31;5344436;26;33580;-81
2023/09/21 00:03:39;;;;;;;1.12;0.28;;;;;;;21.76;52.50;99704.22;5326904;26;32758;-81
2023/09/21 00:06:07;;;;;;;0.00;0.00;;;;;;;21.56;53.28;99703.37;5345922;26;33808;-81
2023/09/21 00:08:35;;;;;;;0.22;0.22;;;;;;;21.42;54.05;99707.28;5346092;26;33668;-81
2023/09/21 00:11:04;;;;;;;0.50;0.40;;;;;;;21.23;55.14;99709.91;5364475;26;34343;-81
2023/09/21 00:13:32;;;;;;;0.90;0.82;;;;;;;21.22;54.80;99710.87;5363832;26;33600;-80
2023/09/21 00:16:01;;;;;;;0.10;0.10;;;;;;;21.14;55.20;99708.88;5364539;26;33075;-80
2023/09/21 00:18:29;;;;;;;5.62;0.73;;;;;;;21.16;55.82;99701.53;5345683;26;33890;-80
2023/09/21 00:21:07;;;;;;;1.55;0.22;;;;;;;21.00;56.10;99709.25;5362604;26;34405;-80
2023/09/21 00:23:36;;;;;;;0.55;0.55;;;;;;;21.17;55.58;99708.62;5361892;26;33643;-80
2023/09/21 00:26:04;;;;;;;0.52;0.22;;;;;;;20.92;56.43;99709.06;5343140;26;34134;-80
2023/09/21 00:28:31;;;;;;;0.15;0.10;;;;;;;20.88;56.52;99710.31;5342318;26;33701;-80
2023/09/21 00:31:02;;;;;;;1.33;0.25;;;;;;;20.87;56.36;99704.13;5343080;26;33362;-80
2023/09/21 00:33:32;;;;;;;0.20;0.20;;;;;;;20.98;56.05;99703.16;5364131;26;33484;-81
2023/09/21 00:36:11;;;;;;;0.20;0.20;;;;;;;20.70;57.04;99707.44;5327373;26;35335;-80
2023/09/21 00:38:39;;;;;;;0.30;0.20;;;;;;;20.51;56.90;99694.78;5364506;26;33596;-80
2023/09/21 00:41:08;;;;;;;0.28;0.28;;;;;;;20.75;56.58;99696.28;5364055;26;33646;-80
2023/09/21 00:43:35;;;;;;;0.65;0.55;;;;;;;20.54;57.59;99685.59;5345431;26;34739;-81
2023/09/21 00:46:03;;;;;;;0.13;0.13;;;;;;;20.54;57.49;99693.66;5345723;26;33690;-81
2023/09/21 00:48:36;;;;;;;0.05;0.05;;;;;;;20.65;57.00;99686.38;5345952;26;34130;-81
2023/09/21 00:51:07;;;;;;;0.30;0.30;;;;;;;20.57;57.34;99688.87;5364238;26;33679;-81
2023/09/21 00:53:36;;;;;;;0.10;0.00;;;;;;;20.49;57.61;99691.38;5346360;26;33342;-80
2023/09/21 00:56:09;;;;;;;0.20;0.20;;;;;;;20.40;57.98;99692.12;5345088;26;34214;-81
2023/09/21 00:58:45;;;;;;;0.30;0.30;;;;;;;20.14;58.82;99692.53;5345377;26;33626;-80
2023/09/21 01:01:18;;;;;;;0.45;0.30;;;;;;;20.47;57.63;99685.31;5364511;26;33841;-81
2023/09/21 01:03:46;;;;;;;0.20;0.10;;;;;;;20.17;58.41;99686.06;5328224;26;34490;-82
2023/09/21 01:06:16;;;;;;;0.73;0.65;;;;;;;20.24;58.05;99675.66;5345607;26;33067;-80
2023/09/21 01:08:44;;;;;;;2.20;0.55;;;;;;;19.96;59.08;99678.03;5345938;26;33349;-80
2023/09/21 01:11:14;;;;;;;0.57;0.30;;;;;;;20.03;59.08;99684.53;5344728;26;32884;-80
2023/09/21 01:13:42;;;;;;;0.08;0.08;;;;;;;20.03;58.82;99683.69;5345345;26;34059;-80
2023/09/21 01:16:15;;;;;;;0.05;0.05;;;;;;;19.88;59.10;99685.84;5345050;26;33882;-81
2023/09/21 01:18:44;;;;;;;5.15;0.43;;;;;;;19.99;58.71;99683.13;5346402;26;33671;-81
2023/09/21 01:21:14;;;;;;;0.32;0.32;;;;;;;19.99;58.74;99683.13;5343037;26;33144;-80
2023/09/21 01:23:45;;;;;;;0.22;0.22;;;;;;;20.14;58.30;99675.63;5361466;26;34665;-81
2023/09/21 01:26:19;;;;;;;0.10;0.10;;;;;;;19.87;59.35;99678.78;5345802;26;33201;-80
2023/09/21 01:28:48;;;;;;;0.25;0.25;;;;;;;19.94;59.14;99680.00;5327658;26;32795;-80
2023/09/21 01:31:17;;;;;;;5.72;1.10;;;;;;;19.86;59.30;99672.59;5345432;26;33895;-81
2023/09/21 01:33:46;;;;;;;0.40;0.30;;;;;;;19.92;59.04;99668.53;5363414;26;34646;-80
2023/09/21 01:36:15;;;;;;;0.52;0.45;;;;;;;19.93;58.77;99672.91;5326834;26;33958;-80
2023/09/21 01:38:46;;;;;;;0.10;0.10;;;;;;;19.92;58.66;99671.22;5363341;26;33726;-80
2023/09/21 01:41:21;;;;;;;0.10;0.10;;;;;;;19.87;58.65;99666.25;5363481;26;33095;-80
2023/09/21 01:43:49;;;;;;;0.32;0.32;;;;;;;19.98;58.28;99665.31;5362742;26;33732;-80
2023/09/21 01:46:21;;;;;;;0.10;0.10;;;;;;;19.82;58.72;99659.56;5344410;26;33381;-80
2023/09/21 01:48:51;;;;;;;0.00;0.00;;;;;;;19.80;58.90;99666.91;5326994;26;32669;-80
2023/09/21 01:51:20;;;;;;;2.78;1.15;;;;;;;19.66;59.26;99665.37;5365134;26;34010;-80
2023/09/21 01:53:48;;;;;;;0.20;0.20;;;;;;;19.66;59.38;99654.66;5345453;26;33565;-80
2023/09/21 01:56:17;;;;;;;0.10;0.10;;;;;;;19.69;59.31;99659.75;5345710;26;34871;-80
2023/09/21 01:58:46;;;;;;;0.00;0.00;;;;;;;19.57;59.46;99653.56;5325703;26;33485;-80
2023/09/21 02:01:16;;;;;;;0.13;0.10;;;;;;;19.47;59.82;99651.78;5324381;26;33280;-80
2023/09/21 02:03:45;;;;;;;0.62;0.20;;;;;;;19.74;58.60;99651.31;5325832;26;33592;-80
2023/09/21 02:06:15;;;;;;;0.28;0.10;;;;;;;19.61;59.03;99649.69;5345623;26;33601;-80
2023/09/21 02:08:44;;;;;;;0.10;0.10;;;;;;;19.52;59.51;99652.25;5345876;26;33287;-80
2023/09/21 02:11:13;;;;;;;0.10;0.10;;;;;;;19.55;59.35;99650.16;5327777;26;33978;-80
2023/09/21 02:13:41;;;;;;;0.30;0.10;;;;;;;19.67;58.92;99649.16;5345204;26;32807;-80
2023/09/21 02:16:09;;;;;;;0.20;0.20;;;;;;;19.83;58.11;99639.84;5365252;26;34890;-80
2023/09/21 02:18:37;;;;;;;0.20;0.20;;;;;;;19.59;58.94;99643.56;5308605;26;32866;-80
2023/09/21 02:21:08;;;;;;;0.70;0.70;;;;;;;19.58;58.80;99635.66;5326163;26;33871;-80
2023/09/21 02:23:37;;;;;;;7.35;0.70;;;;;;;19.28;59.76;99633.72;5327359;26;33321;-80
2023/09/21 02:26:06;;;;;;;0.47;0.30;;;;;;;19.65;58.22;99632.38;5326920;26;33077;-81
2023/09/21 02:28:34;;;;;;;0.10;0.10;;;;;;;18.90;60.51;99637.69;5326446;26;33564;-80
2023/09/21 02:31:06;;;;;;;1.25;0.30;;;;;;;18.85;60.61;99637.22;5308754;26;32758;-81
2023/09/21 02:33:34;;;;;;;0.20;0.20;;;;;;;18.98;60.55;99639.72;5345850;26;34675;-81
2023/09/21 02:36:02;;;;;;;0.08;0.08;;;;;;;19.22;59.72;99634.19;5327570;26;34128;-80
2023/09/21 02:38:30;;;;;;;0.65;0.55;;;;;;;19.30;59.45;99629.91;5345189;26;33321;-80
2023/09/21 02:41:00;;;;;;;0.62;0.62;;;;;;;19.07;59.70;99631.81;5326792;26;32990;-80
2023/09/21 02:43:29;;;;;;;0.10;0.10;;;;;;;19.33;59.01;99628.84;5322384;26;95375;-79
2023/09/21 02:45:57;;;;;;;2.08;0.98;;;;;;;19.13;59.63;99625.97;5308426;26;34029;-79
2023/09/21 02:48:25;;;;;;;0.20;0.20;;;;;;;19.25;59.28;99626.78;5364992;26;33264;-79
2023/09/21 02:50:53;;;;;;;0.20;0.20;;;;;;;19.26;59.22;99622.28;5344685;26;32677;-79
2023/09/21 02:53:21;;;;;;;0.35;0.17;;;;;;;19.28;59.23;99623.84;5363341;26;33147;-79
2023/09/21 02:55:50;;;;;;;0.45;0.08;;;;;;;19.62;57.67;99618.41;5363797;26;33489;-80
2023/09/21 02:58:19;;;;;;;0.00;0.00;;;;;;;19.23;59.11;99617.16;5345072;26;34665;-79
2023/09/21 03:00:49;;;;;;;0.60;0.40;;;;;;;19.41;58.34;99612.97;5345227;26;34574;-79
2023/09/21 03:03:21;;;;;;;1.10;0.80;;;;;;;19.39;58.32;99609.56;5345531;26;33453;-79
2023/09/21 03:05:51;;;;;;;0.20;0.10;;;;;;;19.53;57.96;99605.75;5364333;26;34384;-79
2023/09/21 03:08:22;;;;;;;1.17;0.62;;;;;;;19.26;58.85;99603.53;5362865;26;34535;-79
2023/09/21 03:10:55;;;;;;;0.67;0.67;;;;;;;19.29;58.35;99597.94;5363167;26;33526;-79
2023/09/21 03:13:23;;;;;;;0.00;0.00;;;;;;;19.29;58.39;99608.66;5345314;26;34058;-81
2023/09/21 03:15:53;;;;;;;0.00;0.00;;;;;;;19.62;57.44;99608.53;5344937;26;34303;-81
2023/09/21 03:18:24;;;;;;;0.52;0.45;;;;;;;19.40;57.83;99606.75;5326655;26;32483;-80
2023/09/21 03:20:52;;;;;;;1.45;0.85;;;;;;;19.36;57.95;99609.81;5364579;26;34052;-80
2023/09/21 03:23:22;;;;;;;0.35;0.35;;;;;;;19.65;57.16;99610.09;5362972;26;34051;-81
2023/09/21 03:25:50;;;;;;;0.22;0.13;;;;;;;19.62;57.37;99603.19;5345275;26;33762;-81
2023/09/21 03:28:19;;;;;;;0.20;0.20;;;;;;;19.34;58.21;99611.78;5326075;26;32079;-82
2023/09/21 03:30:49;;;;;;;1.20;0.30;;;;;;;19.67;57.30;99602.78;5363528;26;35173;-80
2023/09/21 03:33:18;;;;;;;0.47;0.47;;;;;;;19.44;58.32;99610.03;5326609;26;34068;-80
2023/09/21 03:35:47;;;;;;;1.12;0.73;;;;;;;19.86;56.73;99591.34;5326659;26;33021;-81
2023/09/21 03:38:18;;;;;;;3.12;1.20;;;;;;;19.48;58.26;99598.09;5344657;26;33283;-80
2023/09/21 03:40:48;;;;;;;0.35;0.35;;;;;;;19.93;56.79;99584.47;5346635;26;33540;-80
2023/09/21 03:43:18;;;;;;;0.15;0.15;;;;;;;19.54;57.91;99599.41;5349777;26;33151;-80
2023/09/21 03:45:47;;;;;;;0.00;0.00;;;;;;;19.54;57.86;99586.00;5366838;26;34361;-81
2023/09/21 03:48:16;;;;;;;1.67;1.27;;;;;;;19.54;57.81;99581.50;5368691;26;33663;-80
2023/09/21 03:50:44;;;;;;;0.75;0.65;;;;;;;19.51;58.05;99584.44;5349878;26;32792;-81
2023/09/21 03:53:13;;;;;;;0.00;0.00;;;;;;;19.51;58.07;99581.75;5349711;26;33599;-80
2023/09/21 03:55:41;;;;;;;0.08;0.08;;;;;;;19.69;57.41;99564.16;5368372;26;34331;-80
2023/09/21 03:58:10;;;;;;;0.10;0.10;;;;;;;19.74;57.28;99582.53;5349676;26;33677;-80
2023/09/21 04:00:38;;;;;;;0.17;0.17;;;;;;;19.58;57.70;99572.25;5331831;26;32841;-80
2023/09/21 04:03:10;;;;;;;0.52;0.52;;;;;;;19.57;57.85;99565.19;5368268;26;35234;-80
2023/09/21 04:05:42;;;;;;;0.43;0.22;;;;;;;19.73;57.83;99571.94;5369340;26;34784;-80
2023/09/21 04:08:11;;;;;;;0.00;0.00;;;;;;;19.97;56.77;99569.84;5367502;26;33268;-80
2023/09/21 04:10:40;;;;;;;0.25;0.25;;;;;;;19.91;56.75;99567.69;5349380;26;32658;-81
2023/09/21 04:13:09;;;;;;;6.70;1.65;;;;;;;19.90;56.60;99556.12;5350171;26;32910;-80
2023/09/21 04:15:37;;;;;;;0.50;0.50;;;;;;;20.06;56.67;99558.31;5367839;26;34270;-79
2023/09/21 04:18:08;;;;;;;0.10;0.10;;;;;;;20.12;56.43;99557.78;5349596;26;32457;-81
2023/09/21 04:20:39;;;;;;;0.30;0.20;;;;;;;20.20;56.17;99563.31;5369263;26;34280;-81
2023/09/21 04:23:08;;;;;;;0.00;0.00;;;;;;;20.29;55.87;99560.84;5331501;26;33189;-81
2023/09/21 04:25:37;;;;;;;0.00;0.00;;;;;;;20.48;55.35;99566.31;5349921;26;32910;-81
2023/09/21 04:28:05;;;;;;;0.52;0.47;;;;;;;20.44;55.76;99570.19;5330831;26;34618;-81
2023/09/21 04:30:34;;;;;;;0.35;0.20;;;;;;;20.46;55.99;99558.37;5368643;26;34797;-81
2023/09/21 04:33:03;;;;;;;0.57;0.57;;;;;;;20.54;55.49;99563.06;5312879;26;33269;-82
2023/09/21 04:35:32;;;;;;;0.60;0.60;;;;;;;20.56;55.47;99569.16;5350532;26;33855;-82
2023/09/21 04:38:03;;;;;;;0.13;0.13;;;;;;;20.59;55.73;99574.22;5368441;26;33275;-82
2023/09/21 04:40:31;;;;;;;0.10;0.10;;;;;;;20.62;55.72;99575.81;5331348;26;33235;-81
2023/09/21 04:42:58;;;;;;;0.52;0.52;;;;;;;21.18;54.34;99572.53;5368490;26;33531;-81
2023/09/21 04:45:27;;;;;;;0.10;0.10;;;;;;;20.82;55.34;99580.22;5331576;26;33427;-81
2023/09/21 04:48:03;;;;;;;0.93;0.93;;;;;;;20.92;54.33;99574.87;5350475;26;33573;-81
2023/09/21 04:50:32;;;;;;;0.20;0.20;;;;;;;21.02;54.46;99575.75;5350299;26;32865;-81
2023/09/21 04:52:59;;;;;;;0.10;0.10;;;;;;;21.26;53.41;99571.81;5368311;26;33962;-81
2023/09/21 04:55:27;;;;;;;0.70;0.60;;;;;;;20.85;55.38;99579.97;5330924;26;32854;-80
2023/09/21 04:57:55;;;;;;;0.55;0.55;;;;;;;21.29;54.16;99577.75;5349787;26;33565;-80
2023/09/21 05:00:23;;;;;;;0.32;0.32;;;;;;;21.11;55.15;99574.91;5367913;26;33378;-79
2023/09/21 05:02:51;;;;;;;0.47;0.40;;;;;;;21.10;54.86;99567.84;5368207;26;34099;-80
2023/09/21 05:05:19;;;;;;;0.00;0.00;;;;;;;20.92;55.24;99572.19;5368627;26;34561;-80
2023/09/21 05:07:47;;;;;;;0.50;0.35;;;;;;;20.89;55.00;99564.44;5368518;26;33612;-81
2023/09/21 05:10:15;;;;;;;0.68;0.68;;;;;;;20.64;56.41;99572.00;5349467;26;32553;-80
2023/09/21 05:12:43;;;;;;;2.83;0.68;;;;;;;20.87;55.76;99575.31;5367213;26;33746;-80
2023/09/21 05:15:14;;;;;;;7.93;1.70;;;;;;;20.97;54.95;99572.63;5364016;26;33578;-80
2023/09/21 05:17:44;;;;;;;0.62;0.62;;;;;;;21.07;54.75;99578.84;5365021;26;33302;-80
2023/09/21 05:20:12;;;;;;;1.65;0.52;;;;;;;21.32;54.27;99577.53;5346914;26;34861;-81
2023/09/21 05:22:39;;;;;;;0.15;0.10;;;;;;;21.19;54.92;99577.75;5327544;26;33171;-80
2023/09/21 05:25:09;;;;;;;0.50;0.50;;;;;;;20.94;56.12;99575.63;5365813;26;34584;-79
2023/09/21 05:27:38;;;;;;;0.30;0.30;;;;;;;21.04;55.82;99570.25;5328892;26;33082;-80
2023/09/21 05:30:10;;;;;;;0.47;0.47;;;;;;;21.18;55.49;99576.06;5347269;26;33823;-79
2023/09/21 05:32:38;;;;;;;1.65;0.52;;;;;;;21.18;55.53;99573.38;5366076;26;33656;-79
2023/09/21 05:35:08;;;;;;;0.28;0.28;;;;;;;21.44;54.88;99573.69;5367664;26;33890;-80
2023/09/21 05:37:36;;;;;;;0.52;0.52;;;;;;;21.46;54.93;99573.56;5367267;26;33835;-80
2023/09/21 05:40:05;;;;;;;0.00;0.00;;;;;;;21.29;55.79;99571.53;5387817;26;34726;-80
2023/09/21 05:42:34;;;;;;;0.50;0.50;;;;;;;21.34;55.41;99577.38;5367420;26;33531;-80
2023/09/21 05:45:03;;;;;;;0.35;0.35;;;;;;;21.57;54.39;99568.03;5367812;26;34571;-80
2023/09/21 05:47:32;;;;;;;0.10;0.10;;;;;;;21.48;54.72;99568.88;5348526;26;32733;-80
2023/09/21 05:50:01;;;;;;;1.10;0.77;;;;;;;21.33;54.91;99581.06;5348936;26;32758;-80
2023/09/21 05:52:34;;;;;;;0.28;0.28;;;;;;;21.66;54.03;99571.69;5349025;26;32704;-80
2023/09/21 05:55:03;;;;;;;0.40;0.40;;;;;;;21.28;55.54;99577.91;5368628;26;34595;-80
2023/09/21 05:57:31;;;;;;;0.65;0.55;;;;;;;21.42;54.48;99574.84;5348503;26;33586;-81
2023/09/21 05:59:59;;;;;;;1.23;0.68;;;;;;;21.45;54.56;99566.47;5367409;26;34146;-80
2023/09/21 06:02:27;;;;;;;0.98;0.25;;;;;;;21.13;55.47;99572.94;5349788;26;33302;-80
2023/09/21 06:04:55;;;;;;;0.30;0.30;;;;;;;21.23;55.01;99571.12;5349121;26;33095;-80
2023/09/21 06:07:24;;;;;;;0.70;0.62;;;;;;;21.34;54.68;99563.94;5368344;26;33252;-80
2023/09/21 06:09:57;;;;;;;0.10;0.10;;;;;;;21.28;54.29;99569.84;5367778;26;34873;-81
2023/09/21 06:12:57;;;;;;;0.37;0.37;;;;;;;21.42;53.93;99567.63;5341203;26;35208;-80
2023/09/21 06:15:25;;;;;;;0.20;0.20;;;;;;;21.47;53.46;99564.50;5368375;26;33781;-79
2023/09/21 06:17:53;;;;;;;0.30;0.30;;;;;;;21.38;53.63;99568.03;5349002;26;32302;-80
2023/09/21 06:20:21;;;;;;;0.17;0.17;;;;;;;21.31;53.86;99566.91;5349252;26;34699;-80
2023/09/21 06:22:49;;;;;;;8.48;3.70;;;;;;;21.59;53.41;99562.50;5366608;26;33417;-80
2023/09/21 06:25:19;;;;;;;0.20;0.17;;;;;;;21.43;53.94;99577.38;5330638;26;32788;-80
2023/09/21 06:27:47;;;;;;;0.20;0.20;;;;;;;21.48;53.79;99571.56;5350258;26;33638;-79
2023/09/21 06:30:15;;;;;;;0.08;0.08;;;;;;;21.85;53.18;99573.50;5347515;26;33982;-80
2023/09/21 06:32:44;;;;;;;0.62;0.22;;;;;;;21.67;53.57;99568.88;5346758;26;34980;-80
2023/09/21 06:35:15;;;;;;;0.40;0.40;;;;;;;21.70;53.62;99568.59;5346678;26;35321;-79
2023/09/21 06:37:43;;;;;;;0.20;0.20;;;;;;;21.58;54.25;99560.81;5346496;26;32561;-80
2023/09/21 06:40:10;;;;;;;0.10;0.10;;;;;;;21.72;54.34;99558.53;5384853;26;33754;-80
2023/09/21 06:42:38;;;;;;;0.15;0.15;;;;;;;21.71;54.23;99566.75;5365502;26;34382;-80
2023/09/21 06:45:07;;;;;;;1.02;0.88;;;;;;;21.58;54.58;99553.59;5344829;26;33896;-80
2023/09/21 06:47:34;;;;;;;0.17;0.17;;;;;;;21.88;54.76;99551.69;5346357;26;32801;-80
2023/09/21 06:50:03;;;;;;;0.95;0.70;;;;;;;21.84;55.13;99556.53;5365347;26;33592;-80
2023/09/21 06:52:31;;;;;;;1.42;1.37;;;;;;;21.75;55.48;99552.03;5346267;26;33758;-80
2023/09/21 06:55:00;;;;;;;1.23;0.82;;;;;;;21.62;56.47;99546.94;5346958;26;33956;-80
2023/09/21 06:57:28;;;;;;;0.60;0.60;;;;;;;21.48;55.63;99540.19;5347324;26;33014;-80
2023/09/21 06:59:57;;;;;;;0.47;0.47;;;;;;;21.91;54.62;99540.66;5346125;26;34654;-80
2023/09/21 07:02:24;;;;;;;0.30;0.30;;;;;;;22.09;54.97;99543.44;5327021;26;32995;-80
2023/09/21 07:05:12;;;;;;;3.30;1.23;;;;;;;22.03;54.90;99538.63;5364332;26;33246;-80
2023/09/21 07:07:41;;;;;;;2.67;1.15;;;;;;;22.00;54.19;99547.84;5345733;26;32550;-80
2023/09/21 07:10:10;;;;;;;0.45;0.45;;;;;;;22.21;54.33;99536.91;5366590;26;33644;-80
2023/09/21 07:12:39;;;;;;;1.75;1.48;;;;;;;22.17;54.15;99536.37;5366230;26;33611;-80
2023/09/21 07:15:07;;;;;;;1.52;0.90;;;;;;;22.10;54.19;99543.28;5348702;26;34696;-80
2023/09/21 07:17:36;;;;;;;0.73;0.60;;;;;;;22.36;53.91;99534.56;5349468;26;33290;-80
2023/09/21 07:20:06;;;;;;;0.93;0.80;;;;;;;22.53;53.67;99531.09;5367776;26;33717;-80
2023/09/21 07:22:34;;;;;;;0.20;0.20;;;;;;;22.74;52.96;99534.41;5368160;26;33724;-80
2023/09/21 07:25:03;;;;;;;0.62;0.62;;;;;;;22.64;53.65;99533.56;5349018;26;33082;-80
2023/09/21 07:27:30;;;;;;;4.25;0.60;;;;;;;22.47;53.46;99531.72;5331245;26;33543;-80
2023/09/21 07:30:00;;;;;;;0.57;0.57;;;;;;;22.81;53.24;99534.63;5330194;26;33134;-80
2023/09/21 07:32:28;;;;;;;2.53;0.75;;;;;;;22.82;53.51;99538.16;5368041;26;33603;-80
2023/09/21 07:34:56;;;;;;;0.90;0.47;;;;;;;23.27;52.27;99529.22;5330892;26;33092;-80
2023/09/21 07:37:24;;;;;;;0.25;0.25;;;;;;;23.37;52.53;99529.97;5368225;26;34027;-80
2023/09/21 07:39:52;;;;;;;0.80;0.70;;;;;;;23.53;51.52;99530.09;5367731;26;34019;-80
2023/09/21 07:42:20;;;;;;;0.25;0.25;;;;;;;23.63;52.31;99536.25;5367890;26;33961;-80
2023/09/21 07:44:48;;;;;;;0.00;0.00;;;;;;;23.66;51.94;99538.66;5367666;26;34827;-80
2023/09/21 07:47:16;;;;;;;0.20;0.20;;;;;;;23.67;51.41;99537.66;5349003;26;34402;-80
2023/09/21 07:49:44;;;;;;;0.35;0.35;;;;;;;23.45;51.79;99535.41;5330799;26;32778;-80
2023/09/21 07:52:13;;;;;;;3.22;1.48;;;;;;;23.29;52.43;99544.22;5330921;26;32877;-80
2023/09/21 07:54:40;;;;;;;0.45;0.40;;;;;;;23.22;52.57;99538.63;5349109;26;33335;-80
2023/09/21 07:57:08;;;;;;;0.82;0.52;;;;;;;23.14;52.83;99541.22;5349090;26;34345;-80
2023/09/21 07:59:37;;;;;;;0.62;0.37;;;;;;;23.15;53.00;99542.91;5330761;26;34959;-80
2023/09/21 08:02:05;;;;;;;1.58;0.68;;;;;;;23.09;53.44;99543.53;5349003;26;33498;-80
2023/09/21 08:04:33;;;;;;;0.35;0.35;;;;;;;23.17;53.34;99550.84;5387875;26;33768;-80
2023/09/21 08:07:01;;;;;;;3.42;0.90;;;;;;;23.22;53.26;99553.94;5367903;26;33971;-80
2023/09/21 08:09:30;;;;;;;1.42;1.05;;;;;;;23.09;53.62;99554.31;5367395;26;33535;-80
2023/09/21 08:12:00;;;;;;;1.40;0.95;;;;;;;23.35;53.18;99556.22;5368207;26;33595;-80
2023/09/21 08:14:31;;;;;;;0.20;0.20;;;;;;;23.22;53.14;99554.78;5367857;26;34512;-80
2023/09/21 08:17:03;;;;;;;0.13;0.13;;;;;;;22.95;53.78;99562.91;5349940;26;32308;-80
2023/09/21 08:19:31;;;;;;;0.10;0.10;;;;;;;23.04;53.64;99566.53;5349317;26;33777;-80
2023/09/21 08:21:59;;;;;;;0.55;0.52;;;;;;;23.39;52.67;99576.47;5367385;26;33909;-80
2023/09/21 08:24:27;;;;;;;0.25;0.25;;;;;;;23.46;51.86;99574.84;5348500;26;33059;-80
2023/09/21 08:26:56;;;;;;;0.55;0.55;;;;;;;23.20;52.55;99594.47;5350189;26;34757;-80
2023/09/21 08:29:25;;;;;;;2.83;0.43;;;;;;;23.35;52.17;99600.16;5368560;26;34598;-79
2023/09/21 08:31:53;;;;;;;0.65;0.65;;;;;;;23.45;52.65;99608.16;5349449;26;32985;-79
2023/09/21 08:34:21;;;;;;;0.22;0.22;;;;;;;23.19;56.47;99600.00;5349089;26;33358;-80
2023/09/21 08:36:49;;;;;;;0.55;0.55;;;;;;;23.13;56.36;99598.78;5330184;26;32524;-80
2023/09/21 08:39:18;;;;;;;0.52;0.45;;;;;;;23.18;57.04;99591.09;5368001;26;33911;-80
2023/09/21 08:41:50;;;;;;;0.03;0.03;;;;;;;23.14;57.80;99578.94;5387658;26;35273;-80
2023/09/21 08:44:18;;;;;;;0.20;0.20;;;;;;;23.09;57.47;99581.22;5330456;26;33345;-79
2023/09/21 08:46:47;;;;;;;0.40;0.40;;;;;;;22.81;58.65;99571.47;5348135;26;33649;-80
2023/09/21 08:49:15;;;;;;;2.78;0.55;;;;;;;22.63;59.76;99568.72;5330617;26;32912;-80
2023/09/21 08:51:44;;;;;;;0.55;0.55;;;;;;;22.31;60.98;99559.22;5366775;26;32619;-80
2023/09/21 08:54:13;;;;;;;0.62;0.40;;;;;;;22.28;61.85;99554.16;5330884;26;34104;-80
2023/09/21 08:56:46;;;;;;;0.68;0.60;;;;;;;22.17;62.07;99563.28;5347160;26;32477;-80
2023/09/21 08:59:15;;;;;;;1.52;1.05;;;;;;;22.34;62.57;99550.03;5346613;26;33978;-79
2023/09/21 09:01:43;;;;;;;5.87;2.28;;;;;;;22.22;62.24;99561.00;5346070;26;33797;-81
2023/09/21 09:04:11;;;;;;;0.32;0.32;;;;;;;22.15;62.83;99557.19;5345775;26;34562;-80
2023/09/21 09:06:39;;;;;;;0.70;0.70;;;;;;;22.56;61.46;99549.66;5329196;26;32503;-80
2023/09/21 09:09:08;;;;;;;0.75;0.52;;;;;;;22.56;61.61;99552.34;5366294;26;33714;-80
2023/09/21 09:11:40;;;;;;;0.88;0.37;;;;;;;22.27;61.84;99551.63;5348670;26;33203;-80
2023/09/21 09:14:12;;;;;;;;;;;;;;;22.40;62.22;99549.44;5348831;26;33187;-80
2023/09/21 09:16:39;;;;;;;1.17;0.88;;;;;;;22.34;62.17;99547.34;5348695;26;33111;-80
2023/09/21 09:19:08;;;;;;;0.30;0.30;;;;;;;22.26;63.29;99555.28;5348723;26;33933;-80
2023/09/21 09:21:37;;;;;;;0.35;0.35;;;;;;;22.36;62.94;99553.41;5330680;26;33939;-80
2023/09/21 09:24:06;;;;;;;1.02;0.93;;;;;;;21.95;63.18;99548.31;5348785;26;33914;-80
2023/09/21 09:26:38;;;;;;;0.50;0.50;;;;;;;22.00;62.98;99550.56;5350013;26;34508;-80
2023/09/21 09:29:09;;;;;;;0.45;0.45;;;;;;;22.37;61.99;99541.69;5367395;26;33609;-80
2023/09/21 09:31:41;;;;;;;0.40;0.40;;;;;;;22.44;62.50;99529.31;5349584;26;33728;-80
2023/09/21 09:34:16;;;;;;;1.08;0.50;;;;;;;22.37;62.64;99529.06;5367532;26;34147;-80
2023/09/21 09:36:52;;;;;;;1.42;1.02;;;;;;;22.42;63.13;99528.63;5366914;26;32876;-80
2023/09/21 09:39:19;;;;;;;0.75;0.40;;;;;;;22.45;63.60;99531.00;5348945;26;32730;-80
2023/09/21 09:41:50;;;;;;;2.58;1.45;;;;;;;22.78;62.39;99528.69;5367264;26;33628;-80
2023/09/21 09:44:24;;;;;;;0.57;0.50;;;;;;;23.19;60.96;99522.75;5366896;26;33169;-80
2023/09/21 09:46:56;;;;;;;0.17;0.17;;;;;;;23.35;60.70;99518.50;5349716;26;33313;-80
2023/09/21 09:49:29;;;;;;;0.20;0.15;;;;;;;23.12;61.25;99515.44;5348298;26;32404;-80
2023/09/21 09:52:00;;;;;;;0.30;0.30;;;;;;;23.16;62.24;99517.66;5347048;26;33409;-80
2023/09/21 09:54:29;;;;;;;2.08;0.80;;;;;;;22.69;63.36;99522.34;5365370;26;34780;-80
2023/09/21 09:57:01;;;;;;;1.98;1.37;;;;;;;23.06;62.13;99527.66;5327225;26;32607;-80
2023/09/21 09:59:30;;;;;;;0.68;0.52;;;;;;;23.07;62.77;99517.72;5347243;26;33886;-80
2023/09/21 10:01:59;;;;;;;0.80;0.73;;;;;;;23.38;59.98;99512.81;5346904;26;34369;-80
2023/09/21 10:04:33;;;;;;;0.60;0.60;;;;;;;23.60;59.88;99512.31;5346745;26;33889;-80
2023/09/21 10:07:04;;;;;;;3.78;2.28;;;;;;;23.96;58.61;99504.13;5346821;26;34206;-80
2023/09/21 10:09:32;;;;;;;1.40;0.75;;;;;;;23.66;59.39;99506.31;5347238;26;33218;-80
2023/09/21 10:12:03;;;;;;;4.20;1.62;;;;;;;23.38;60.02;99507.41;5365189;26;33991;-80
2023/09/21 10:14:36;;;;;;;0.80;0.40;;;;;;;22.96;62.16;99513.44;5364929;26;33152;-80
2023/09/21 10:17:10;;;;;;;7.15;1.58;;;;;;;23.51;59.97;99506.00;5329203;26;32552;-80
2023/09/21 10:19:43;;;;;;;0.45;0.45;;;;;;;23.85;58.71;99488.25;5328473;26;32753;-80
2023/09/21 10:22:26;;;;;;;0.15;0.15;;;;;;;23.80;59.76;99494.09;5346558;26;33522;-80
2023/09/21 10:24:58;;;;;;;4.10;0.95;;;;;;;24.37;58.11;99480.09;5346738;26;34879;-80
2023/09/21 10:27:28;;;;;;;1.20;0.60;;;;;;;24.58;55.44;99482.34;5347291;26;34095;-80
2023/09/21 10:30:06;;;;;;;0.30;0.25;;;;;;;24.08;56.43;99481.28;5347437;26;33378;-80
2023/09/21 10:32:41;;;;;;;1.08;0.73;;;;;;;24.01;56.83;99474.84;5347206;26;34518;-80
2023/09/21 10:35:18;;;;;;;0.55;0.55;;;;;;;23.85;57.22;99478.31;5365011;26;34002;-80
2023/09/21 10:37:50;;;;;;;0.10;0.10;;;;;;;24.09;57.21;99480.28;5328397;26;32377;-80
2023/09/21 10:40:22;;;;;;;0.40;0.40;;;;;;;24.12;54.68;99473.69;5329882;26;32637;-80
2023/09/21 10:42:51;;;;;;;0.40;0.40;;;;;;;23.92;55.36;99475.78;5344540;26;34366;-80
2023/09/21 10:45:19;;;;;;;0.37;0.37;;;;;;;23.98;54.70;99465.22;5344503;26;33884;-80
2023/09/21 10:47:48;;;;;;;1.48;1.05;;;;;;;23.91;55.36;99460.63;5344634;26;33975;-80
2023/09/21 10:50:20;;;;;;;0.40;0.40;;;;;;;23.92;54.76;99462.31;5343057;26;33918;-80
2023/09/21 10:52:55;;;;;;;0.65;0.55;;;;;;;24.31;53.21;99454.59;5345000;26;32545;-80
2023/09/21 10:55:24;;;;;;;0.80;0.80;;;;;;;24.47;53.07;99448.41;5345537;26;33043;-80
2023/09/21 10:57:56;;;;;;;0.13;0.13;;;;;;;24.44;53.46;99452.28;5362906;26;33770;-80
2023/09/21 11:00:25;;;;;;;0.93;0.75;;;;;;;24.67;53.86;99446.25;5326002;26;34531;-80
2023/09/21 11:02:55;;;;;;;0.37;0.30;;;;;;;24.72;53.58;99450.16;5344748;26;34733;-80
2023/09/21 11:05:23;;;;;;;0.40;0.40;;;;;;;24.85;52.51;99448.81;5343314;26;34649;-80
2023/09/21 11:07:52;;;;;;;0.93;0.37;;;;;;;24.55;54.41;99432.25;5344812;26;33017;-80
2023/09/21 11:10:20;;;;;;;1.30;0.68;;;;;;;25.05;52.32;99423.16;5344431;26;35098;-80
2023/09/21 11:12:49;;;;;;;1.08;1.05;;;;;;;25.41;50.79;99410.19;5323708;26;34729;-81
2023/09/21 11:15:17;;;;;;;4.68;0.85;;;;;;;24.92;51.41;99417.41;5342718;26;34838;-82
2023/09/21 11:17:46;;;;;;;1.52;0.60;;;;;;;25.29;51.23;99417.78;5342747;26;33590;-80
2023/09/21 11:20:19;;;;;;;0.37;0.37;;;;;;;25.26;51.41;99407.31;5342662;26;32979;-81
2023/09/21 11:22:49;;;;;;;0.80;0.75;;;;;;;25.41;50.63;99404.75;5343331;26;34457;-80
2023/09/21 11:25:20;;;;;;;0.35;0.35;;;;;;;25.02;51.86;99404.63;5361387;26;34102;-81
2023/09/21 11:27:50;;;;;;;9.63;0.93;;;;;;;25.31;51.56;99396.00;5343278;26;33199;-81
2023/09/21 11:30:18;;;;;;;4.78;1.67;;;;;;;25.38;51.62;99388.03;5359909;26;34706;-81
2023/09/21 11:32:48;;;;;;;1.15;1.05;;;;;;;25.17;51.43;99388.59;5342552;26;33508;-81
2023/09/21 11:35:17;;;;;;;0.30;0.30;;;;;;;25.77;49.30;99377.31;5342180;26;34357;-81
2023/09/21 11:37:50;;;;;;;1.15;1.05;;;;;;;26.01;50.04;99379.91;5360808;26;33721;-81
2023/09/21 11:40:21;;;;;;;0.13;0.13;;;;;;;26.02;50.04;99372.66;5342148;26;34495;-81
2023/09/21 11:42:56;;;;;;;2.25;1.62;;;;;;;26.05;49.51;99367.72;5345272;26;34271;-81
2023/09/21 11:45:24;;;;;;;0.60;0.60;;;;;;;25.71;49.94;99359.91;5346132;26;34499;-81